Time;durP1;ratioP1;P1;durP2;ratioP2;P2;SDS_P1;SDS_P2;PMS_P1;PMS_P2;Temp;Humidity;BMP_temperature;BMP_pressure;BME280_temperature;BME280_humidity;BME280_pressure;Samples;Min_cycle;Max_cycle;Signal;HPM_P1;HPM_P2
2022/03/12 00:01:04;;;;;;;10.00;4.93;;;9.60;51.10;;;;;;5077895;27;20043;-81
2022/03/12 00:03:32;;;;;;;9.23;4.65;;;9.70;51.20;;;;;;5080422;27;20021;-80
2022/03/12 00:06:00;;;;;;;11.18;5.38;;;9.70;51.10;;;;;;5034013;28;20028;-79
2022/03/12 00:11:12;;;;;;;11.85;5.45;;;9.70;51.00;;;;;;5075462;28;20063;-79
2022/03/12 00:13:39;;;;;;;10.27;4.90;;;9.70;51.10;;;;;;5048393;28;20020;-80
2022/03/12 00:16:14;;;;;;;9.50;4.80;;;9.70;51.10;;;;;;5062000;27;20032;-81
2022/03/12 00:18:43;;;;;;;8.73;4.72;;;9.70;51.00;;;;;;5064718;27;20020;-80
2022/03/12 00:21:13;;;;;;;8.55;5.10;;;9.60;50.80;;;;;;5061199;27;20028;-80
2022/03/12 00:23:46;;;;;;;7.60;4.40;;;9.70;50.80;;;;;;5050357;28;20046;-80
2022/03/12 00:26:23;;;;;;;10.65;5.53;;;9.70;50.90;;;;;;5055390;27;20032;-81
2022/03/12 00:28:54;;;;;;;9.45;5.55;;;9.70;51.10;;;;;;5064197;28;20020;-81
2022/03/12 00:31:23;;;;;;;;;;;9.60;51.00;;;;;;5050965;28;20036;-81
2022/03/12 00:33:49;;;;;;;10.20;4.57;;;9.60;51.10;;;;;;5066383;27;19908;-81
2022/03/12 00:36:17;;;;;;;5.85;3.67;;;9.50;51.10;;;;;;5084186;27;20031;-80
2022/03/12 00:38:45;;;;;;;7.50;4.93;;;9.50;51.20;;;;;;5063397;28;20034;-79
2022/03/12 00:41:16;;;;;;;9.85;5.63;;;9.50;51.30;;;;;;5062572;27;20032;-81
2022/03/12 00:43:45;;;;;;;8.98;5.00;;;9.50;51.40;;;;;;5047848;27;20047;-81
2022/03/12 00:46:12;;;;;;;10.38;5.20;;;9.40;51.40;;;;;;5060056;27;20035;-80
2022/03/12 00:48:39;;;;;;;9.38;4.82;;;9.40;51.50;;;;;;5098970;27;20035;-81
2022/03/12 00:51:10;;;;;;;7.43;4.25;;;9.40;51.60;;;;;;5047475;27;20044;-80
2022/03/12 00:53:38;;;;;;;9.65;4.45;;;9.40;51.60;;;;;;5051136;28;20028;-81
2022/03/12 00:56:06;;;;;;;9.98;5.60;;;9.40;51.80;;;;;;5062567;27;20031;-81
2022/03/12 00:58:37;;;;;;;7.63;5.10;;;9.40;51.90;;;;;;5067877;28;20030;-81
2022/03/12 01:01:06;;;;;;;11.10;5.07;;;9.30;52.10;;;;;;5061993;28;20031;-81
2022/03/12 01:03:35;;;;;;;9.20;4.93;;;9.30;52.10;;;;;;5049957;27;20059;-81
2022/03/12 01:06:04;;;;;;;8.18;5.78;;;9.30;52.20;;;;;;5046975;28;20023;-81
2022/03/12 01:08:32;;;;;;;7.85;5.22;;;9.30;52.30;;;;;;5080581;28;20042;-81
2022/03/12 01:11:04;;;;;;;9.10;4.80;;;9.30;52.30;;;;;;5060180;28;20044;-79
2022/03/12 01:13:31;;;;;;;6.47;4.47;;;9.30;52.40;;;;;;5048618;27;20050;-81
2022/03/12 01:15:58;;;;;;;7.18;4.38;;;9.20;52.60;;;;;;5081909;28;20031;-80
2022/03/12 01:18:25;;;;;;;6.68;5.15;;;9.20;52.70;;;;;;5081032;27;20359;-80
2022/03/12 01:20:53;;;;;;;9.05;5.18;;;9.20;52.80;;;;;;5060883;27;20599;-80
2022/03/12 01:23:24;;;;;;;9.27;4.75;;;9.20;52.80;;;;;;5097205;27;20029;-80
2022/03/12 01:25:52;;;;;;;8.90;4.78;;;9.30;52.90;;;;;;5048206;27;20028;-81
2022/03/12 01:28:21;;;;;;;7.35;4.40;;;9.30;52.90;;;;;;5066359;28;20028;-80
2022/03/12 01:30:48;;;;;;;7.70;4.70;;;9.30;52.90;;;;;;5061327;27;20470;-80
2022/03/12 01:33:18;;;;;;;6.47;4.18;;;9.40;53.00;;;;;;5048330;27;20042;-80
2022/03/12 01:35:45;;;;;;;7.68;4.72;;;9.40;53.10;;;;;;5070412;27;20046;-80
2022/03/12 01:38:12;;;;;;;6.65;4.53;;;9.40;53.10;;;;;;5044539;27;20030;-80
2022/03/12 01:40:39;;;;;;;13.60;5.40;;;9.40;53.10;;;;;;5063712;27;20044;-80
2022/03/12 01:43:06;;;;;;;8.00;5.25;;;9.40;53.10;;;;;;5061321;28;20035;-80
2022/03/12 01:45:35;;;;;;;11.50;5.95;;;9.40;53.20;;;;;;5048174;27;20023;-80
2022/03/12 01:48:03;;;;;;;9.48;5.18;;;9.40;53.10;;;;;;5062819;28;20382;-80
2022/03/12 01:50:33;;;;;;;7.32;5.18;;;9.50;53.20;;;;;;5078998;27;20034;-80
2022/03/12 01:53:40;;;;;;;11.63;4.93;;;9.40;53.30;;;;;;5045537;28;20487;-80
2022/03/12 01:56:07;;;;;;;6.90;4.78;;;9.50;53.30;;;;;;5047321;27;20059;-82
2022/03/12 01:58:34;;;;;;;9.25;5.50;;;9.50;53.30;;;;;;5062110;28;20028;-81
2022/03/12 02:01:02;;;;;;;8.00;4.68;;;9.50;53.40;;;;;;5061006;28;20034;-80
2022/03/12 02:03:32;;;;;;;8.50;4.97;;;9.50;53.40;;;;;;5064109;28;20035;-80
2022/03/12 02:05:59;;;;;;;9.40;4.03;;;9.60;53.50;;;;;;5064630;28;20028;-80
2022/03/12 02:08:28;;;;;;;8.40;4.78;;;9.60;53.60;;;;;;5078882;28;20044;-80
2022/03/12 02:10:57;;;;;;;8.73;5.57;;;9.60;53.90;;;;;;5095039;27;20035;-80
2022/03/12 02:13:24;;;;;;;8.45;5.82;;;9.60;54.70;;;;;;5065847;28;20036;-80
2022/03/12 02:16:09;;;;;;;7.93;5.22;;;9.50;55.10;;;;;;5059937;28;20019;-80
2022/03/12 02:18:38;;;;;;;9.68;6.72;;;9.50;56.10;;;;;;5080133;28;20028;-80
2022/03/12 02:21:05;;;;;;;10.18;6.05;;;9.50;56.60;;;;;;5042222;27;20039;-80
2022/03/12 02:23:48;;;;;;;10.32;5.60;;;9.50;56.90;;;;;;5066045;28;20024;-80
2022/03/12 02:26:17;;;;;;;12.55;5.80;;;9.50;57.20;;;;;;5065060;27;20047;-79
2022/03/12 02:28:45;;;;;;;10.48;5.72;;;9.40;57.60;;;;;;5061712;28;20039;-79
2022/03/12 02:31:13;;;;;;;9.25;5.90;;;9.40;58.10;;;;;;5042274;27;20035;-79
2022/03/12 02:33:49;;;;;;;7.68;5.07;;;9.40;58.40;;;;;;5066190;27;20028;-79
2022/03/12 02:36:26;;;;;;;9.68;5.50;;;9.40;58.90;;;;;;5098005;27;20036;-79
2022/03/12 02:39:05;;;;;;;11.20;6.30;;;9.30;59.30;;;;;;5076427;28;20055;-79
2022/03/12 02:41:32;;;;;;;10.68;5.78;;;9.30;59.30;;;;;;5080010;27;20043;-80
2022/03/12 02:44:05;;;;;;;7.65;5.35;;;9.30;59.50;;;;;;5097490;27;20396;-83
2022/03/12 02:46:41;;;;;;;8.45;4.93;;;9.30;59.80;;;;;;5099935;28;20051;-84
2022/03/12 02:49:20;;;;;;;8.60;5.60;;;9.20;59.80;;;;;;5054505;28;20026;-83
2022/03/12 02:51:53;;;;;;;8.88;5.70;;;9.30;60.10;;;;;;5077331;28;20149;-86
2022/03/12 02:54:22;;;;;;;10.88;6.20;;;9.20;60.60;;;;;;5080895;28;20046;-80
2022/03/12 02:56:51;;;;;;;9.20;5.57;;;9.20;60.60;;;;;;5045248;28;20042;-81
2022/03/12 03:02:58;;;;;;;7.82;4.93;;;9.10;61.40;;;;;;5018895;28;20058;-82
2022/03/12 03:06:00;;;;;;;;;;;;;;;;;;;;;
2022/03/12 03:09:00;;;;;;;9.88;5.68;;;9.10;61.50;;;;;;5070190;28;20033;-83
2022/03/12 03:11:39;;;;;;;10.00;5.50;;;9.10;61.70;;;;;;5074546;28;20045;-82
2022/03/12 03:14:26;;;;;;;8.25;5.50;;;9.10;61.80;;;;;;5043930;28;20364;-82
2022/03/12 03:17:50;;;;;;;10.35;6.35;;;9.10;61.60;;;;;;5075131;28;20043;-83
2022/03/12 03:20:23;;;;;;;7.75;5.65;;;9.10;61.50;;;;;;5009809;28;20385;-82
2022/03/12 03:22:56;;;;;;;9.13;5.32;;;9.20;61.70;;;;;;5013311;28;20053;-82
2022/03/12 03:25:41;;;;;;;;;;;;;;;;;;;;;
2022/03/12 03:29:36;;;;;;;;;;;;;;;;;;;;;
2022/03/12 03:33:29;;;;;;;;;;;;;;;;;;;;;
2022/03/12 03:36:42;;;;;;;12.68;5.72;;;9.20;61.70;;;;;;4965185;28;20055;-82
2022/03/12 03:39:28;;;;;;;10.35;6.05;;;9.20;61.70;;;;;;4993525;28;20046;-81
2022/03/12 03:42:18;;;;;;;10.95;6.43;;;9.20;61.70;;;;;;4979100;28;20531;-82
2022/03/12 03:45:30;;;;;;;9.07;5.97;;;9.20;61.80;;;;;;4978417;28;20026;-81
2022/03/12 03:48:22;;;;;;;11.40;6.60;;;9.20;61.80;;;;;;4977320;28;20501;-82
2022/03/12 03:52:03;;;;;;;;;;;;;;;;;;;;;
2022/03/12 03:56:10;;;;;;;;;;;;;;;;;;;;;
2022/03/12 04:00:13;;;;;;;;;;;;;;;;;;;;;
2022/03/12 04:06:36;;;;;;;;;;;;;;;;;;;;;
2022/03/12 04:09:48;;;;;;;8.45;5.47;;;9.30;61.90;;;;;;5065825;28;20046;-82
2022/03/12 04:13:08;;;;;;;10.70;6.00;;;9.30;62.00;;;;;;5065543;28;20040;-80
2022/03/12 04:16:02;;;;;;;;;;;;;;;;;;;;;
2022/03/12 04:24:02;;;;;;;11.48;7.43;;;9.30;63.20;;;;;;5065257;28;20487;-80
2022/03/12 04:28:10;;;;;;;;;;;;;;;;;;;;;
2022/03/12 04:43:51;;;;;;;10.82;6.60;;;9.30;63.90;;;;;;4926796;28;20085;-80
2022/03/12 04:47:22;;;;;;;;;;;;;;;;;;;;;
2022/03/12 04:50:39;;;;;;;12.98;7.30;;;9.20;64.30;;;;;;4890775;29;20035;-86
2022/03/12 04:53:22;;;;;;;12.90;6.90;;;9.20;64.70;;;;;;4924722;28;20047;-85
2022/03/12 04:56:09;;;;;;;14.80;7.32;;;9.10;64.80;;;;;;4933723;28;20031;-85
2022/03/12 04:58:49;;;;;;;9.88;7.47;;;9.00;64.90;;;;;;4964323;28;20042;-86
2022/03/12 05:01:46;;;;;;;10.40;6.43;;;9.00;65.20;;;;;;4980026;28;20050;-80
2022/03/12 05:04:19;;;;;;;7.65;4.75;;;8.90;65.30;;;;;;4982935;28;20030;-80
2022/03/12 05:06:50;;;;;;;9.48;5.43;;;8.80;65.40;;;;;;4983259;28;20268;-80
2022/03/12 05:09:20;;;;;;;9.70;5.60;;;8.70;65.70;;;;;;4975971;28;20038;-80
2022/03/12 05:11:51;;;;;;;12.40;6.72;;;8.60;65.80;;;;;;4983931;28;20097;-81
2022/03/12 05:14:19;;;;;;;9.95;6.82;;;8.50;66.30;;;;;;4968121;28;20057;-80
2022/03/12 05:17:08;;;;;;;10.88;6.00;;;8.40;66.70;;;;;;4990855;28;20502;-81
2022/03/12 05:19:38;;;;;;;12.30;6.80;;;8.40;66.70;;;;;;4989142;28;20037;-81
2022/03/12 05:22:07;;;;;;;9.32;6.20;;;8.30;67.00;;;;;;5020575;28;20041;-81
2022/03/12 05:24:36;;;;;;;8.73;5.88;;;8.30;67.40;;;;;;4990418;28;20381;-81
2022/03/12 05:27:14;;;;;;;9.07;6.50;;;8.30;67.50;;;;;;4993847;28;20381;-80
2022/03/12 05:29:47;;;;;;;13.82;6.93;;;8.30;67.60;;;;;;5004141;28;20045;-81
2022/03/12 05:32:19;;;;;;;16.13;7.45;;;8.20;68.00;;;;;;5045376;28;20055;-81
2022/03/12 05:34:46;;;;;;;11.02;6.72;;;8.20;68.10;;;;;;5045712;28;20035;-81
2022/03/12 05:37:13;;;;;;;10.35;6.25;;;8.20;68.20;;;;;;5026086;28;20024;-81
2022/03/12 05:39:39;;;;;;;12.13;7.22;;;8.10;68.60;;;;;;5041389;28;20503;-81
2022/03/12 05:42:07;;;;;;;9.45;5.85;;;8.10;68.80;;;;;;5043064;28;20040;-81
2022/03/12 05:44:34;;;;;;;9.13;6.13;;;8.10;68.70;;;;;;5045493;28;20036;-81
2022/03/12 05:47:02;;;;;;;12.32;6.65;;;8.10;68.70;;;;;;5062220;28;20511;-81
2022/03/12 05:49:38;;;;;;;12.27;6.28;;;8.00;68.80;;;;;;5025743;28;20063;-81
2022/03/12 05:52:14;;;;;;;10.45;6.07;;;8.00;69.10;;;;;;5035080;28;20044;-81
2022/03/12 05:54:41;;;;;;;9.68;5.88;;;8.00;69.30;;;;;;5035762;28;20028;-80
2022/03/12 05:57:07;;;;;;;13.90;7.32;;;7.90;69.30;;;;;;5062579;28;20025;-80
2022/03/12 05:59:34;;;;;;;13.23;7.00;;;7.90;70.40;;;;;;5024199;28;20490;-81
2022/03/12 06:02:01;;;;;;;9.18;6.40;;;7.90;69.90;;;;;;5057740;28;20047;-81
2022/03/12 06:04:27;;;;;;;10.50;6.00;;;7.90;70.00;;;;;;5045003;28;20119;-81
2022/03/12 06:06:54;;;;;;;16.40;6.70;;;7.80;70.10;;;;;;5060068;28;20032;-81
2022/03/12 06:09:23;;;;;;;11.75;5.88;;;7.80;70.30;;;;;;5026207;28;20037;-81
2022/03/12 06:11:53;;;;;;;9.40;5.82;;;7.80;70.30;;;;;;5059221;28;20036;-81
2022/03/12 06:14:25;;;;;;;11.52;6.38;;;7.80;70.50;;;;;;5027031;28;20029;-81
2022/03/12 06:16:52;;;;;;;11.90;6.20;;;7.80;70.40;;;;;;5042408;28;20109;-81
2022/03/12 06:19:19;;;;;;;7.88;5.22;;;7.80;70.70;;;;;;5057326;28;20036;-81
2022/03/12 06:21:47;;;;;;;10.18;6.25;;;7.80;70.50;;;;;;5041026;28;20032;-80
2022/03/12 06:24:14;;;;;;;9.27;6.10;;;7.90;70.70;;;;;;5004988;28;20028;-81
2022/03/12 06:26:43;;;;;;;13.50;8.15;;;7.90;70.80;;;;;;5024919;28;20025;-81
2022/03/12 06:29:14;;;;;;;11.32;6.45;;;8.00;70.90;;;;;;5042417;28;20021;-81
2022/03/12 06:31:42;;;;;;;10.88;6.38;;;8.00;70.90;;;;;;5027201;28;20047;-81
2022/03/12 06:34:15;;;;;;;11.15;6.28;;;8.00;70.90;;;;;;5026999;28;20472;-81
2022/03/12 06:36:44;;;;;;;9.10;5.47;;;8.10;70.80;;;;;;5043004;28;20025;-81
2022/03/12 06:39:17;;;;;;;7.80;5.15;;;8.10;70.60;;;;;;5028548;28;20020;-80
2022/03/12 06:41:45;;;;;;;11.02;6.15;;;8.20;70.70;;;;;;5035098;28;20032;-80
2022/03/12 06:44:16;;;;;;;9.75;6.40;;;8.30;70.70;;;;;;5009392;28;20562;-80
2022/03/12 06:46:45;;;;;;;11.05;7.20;;;8.40;70.60;;;;;;5029130;28;20032;-80
2022/03/12 06:49:14;;;;;;;12.00;7.85;;;8.60;70.50;;;;;;5026285;28;20040;-79
2022/03/12 06:51:44;;;;;;;11.68;7.80;;;8.60;70.30;;;;;;5045594;28;20033;-80
2022/03/12 06:54:12;;;;;;;10.63;7.47;;;8.70;70.20;;;;;;5010086;28;20032;-80
2022/03/12 06:56:39;;;;;;;9.13;6.40;;;8.70;70.30;;;;;;5010883;28;20063;-80
2022/03/12 06:59:06;;;;;;;8.90;6.13;;;8.60;70.20;;;;;;5026605;28;20491;-80
2022/03/12 07:01:34;;;;;;;11.30;6.68;;;8.60;70.20;;;;;;5040188;28;20048;-80
2022/03/12 07:04:08;;;;;;;11.73;7.68;;;8.60;70.30;;;;;;5035912;28;20035;-79
2022/03/12 07:06:35;;;;;;;9.57;6.65;;;8.60;70.50;;;;;;5027938;28;20029;-80
2022/03/12 07:09:03;;;;;;;13.18;8.00;;;8.60;70.60;;;;;;5044856;28;20036;-80
2022/03/12 07:11:36;;;;;;;14.43;7.32;;;8.60;70.60;;;;;;5028965;28;20040;-86
2022/03/12 07:14:04;;;;;;;10.77;6.63;;;8.70;70.70;;;;;;5024662;28;20033;-84
2022/03/12 07:16:31;;;;;;;9.48;6.88;;;8.70;70.80;;;;;;5012208;28;20361;-80
2022/03/12 07:19:01;;;;;;;10.38;7.03;;;8.80;70.70;;;;;;5028019;28;20060;-80
2022/03/12 07:21:34;;;;;;;10.60;7.50;;;8.90;70.70;;;;;;5038710;28;21370;-80
2022/03/12 07:24:01;;;;;;;14.32;6.28;;;8.90;70.80;;;;;;5026570;28;20044;-80
2022/03/12 07:26:29;;;;;;;11.63;6.97;;;9.00;70.80;;;;;;5042636;28;20044;-85
2022/03/12 07:29:00;;;;;;;14.75;6.55;;;9.10;70.90;;;;;;5032468;28;20041;-85
2022/03/12 07:31:27;;;;;;;9.65;6.45;;;9.10;70.80;;;;;;5027699;28;20043;-85
2022/03/12 07:33:57;;;;;;;11.35;7.35;;;9.20;71.00;;;;;;5047688;28;20048;-80
2022/03/12 07:36:26;;;;;;;12.27;5.93;;;9.20;71.00;;;;;;5040680;28;20025;-80
2022/03/12 07:38:52;;;;;;;10.05;6.40;;;9.30;71.00;;;;;;5006982;28;20036;-81
2022/03/12 07:41:29;;;;;;;10.70;6.45;;;9.30;71.10;;;;;;5028569;28;20033;-85
2022/03/12 07:44:09;;;;;;;7.45;4.95;;;9.40;71.10;;;;;;5047873;28;20021;-85
2022/03/12 07:46:38;;;;;;;13.80;6.40;;;9.40;71.10;;;;;;5031258;28;20048;-84
2022/03/12 07:49:05;;;;;;;8.95;6.63;;;9.50;71.00;;;;;;5062742;28;20023;-84
2022/03/12 07:51:35;;;;;;;8.77;5.95;;;9.60;71.10;;;;;;5045425;28;20135;-84
2022/03/12 07:54:04;;;;;;;12.93;8.70;;;9.70;71.10;;;;;;5047936;28;20039;-85
2022/03/12 07:56:34;;;;;;;10.43;7.13;;;9.80;71.10;;;;;;5010989;28;20384;-85
2022/03/12 07:59:02;;;;;;;10.07;6.53;;;9.90;71.10;;;;;;5029549;28;20020;-86
2022/03/12 08:01:28;;;;;;;12.93;7.60;;;9.90;71.10;;;;;;4997625;28;20143;-86
2022/03/12 08:04:03;;;;;;;10.25;6.22;;;10.00;71.20;;;;;;5031195;28;20040;-86
2022/03/12 08:06:33;;;;;;;11.75;7.18;;;10.10;71.30;;;;;;5032316;28;20036;-80
2022/03/12 08:09:03;;;;;;;11.18;6.20;;;10.00;71.50;;;;;;5045236;28;20082;-86
2022/03/12 08:11:34;;;;;;;13.40;6.82;;;10.00;71.60;;;;;;5027388;28;20036;-86
2022/03/12 08:14:26;;;;;;;10.65;6.60;;;10.10;71.90;;;;;;5030155;28;20353;-80
2022/03/12 08:16:53;;;;;;;8.40;5.68;;;10.10;72.10;;;;;;5027349;28;20028;-79
2022/03/12 08:19:25;;;;;;;11.02;6.63;;;10.20;72.20;;;;;;5042915;28;20037;-86
2022/03/12 08:22:03;;;;;;;10.60;6.18;;;10.30;72.40;;;;;;5064882;28;20388;-80
2022/03/12 08:24:32;;;;;;;8.10;5.30;;;10.40;72.60;;;;;;5061813;28;20028;-80
2022/03/12 08:26:59;;;;;;;9.32;6.53;;;10.50;72.50;;;;;;5028621;28;20036;-80
2022/03/12 08:29:34;;;;;;;13.40;6.68;;;10.60;72.50;;;;;;5025812;28;20459;-80
2022/03/12 08:32:03;;;;;;;8.45;6.10;;;10.80;72.90;;;;;;5043329;28;20047;-80
2022/03/12 08:34:29;;;;;;;11.00;6.65;;;10.90;73.00;;;;;;5029956;28;20040;-80
2022/03/12 08:37:08;;;;;;;10.45;6.97;;;11.00;72.90;;;;;;5015274;28;20026;-80
2022/03/12 08:39:40;;;;;;;8.25;5.57;;;11.10;73.10;;;;;;5028238;28;20059;-80
2022/03/12 08:42:24;;;;;;;9.85;5.72;;;11.10;73.10;;;;;;5046228;28;20059;-86
2022/03/12 08:44:58;;;;;;;10.30;6.70;;;11.20;73.10;;;;;;5049075;28;20036;-86
2022/03/12 08:47:46;;;;;;;7.82;5.13;;;11.30;73.10;;;;;;5046997;28;20040;-85
2022/03/12 08:50:16;;;;;;;9.57;5.88;;;11.40;73.40;;;;;;5026423;28;20416;-87
2022/03/12 08:52:56;;;;;;;9.30;6.22;;;11.40;73.70;;;;;;5011673;28;20055;-87
2022/03/12 08:55:45;;;;;;;11.00;7.65;;;11.50;74.10;;;;;;5043615;28;20506;-82
2022/03/12 08:59:39;;;;;;;;;;;;;;;;;;;;;
2022/03/12 09:02:55;;;;;;;8.63;6.75;;;11.50;75.10;;;;;;4999599;28;20056;-80
2022/03/12 09:05:49;;;;;;;9.43;6.03;;;11.60;75.30;;;;;;4992996;28;20764;-80
2022/03/12 09:08:26;;;;;;;11.05;6.50;;;11.80;75.50;;;;;;5005816;28;20492;-81
2022/03/12 09:11:43;;;;;;;8.95;6.47;;;11.90;75.60;;;;;;5034995;28;20511;-80
2022/03/12 09:14:24;;;;;;;8.73;6.75;;;12.10;76.00;;;;;;5059832;28;20526;-81
2022/03/12 09:17:23;;;;;;;10.15;5.50;;;12.20;76.40;;;;;;5060167;28;20043;-80
2022/03/12 09:20:48;;;;;;;;;;;;;;;;;;;;;
2022/03/12 09:24:19;;;;;;;8.88;5.82;;;12.40;76.90;;;;;;5040411;28;20036;-84
2022/03/12 09:26:52;;;;;;;8.50;6.20;;;12.50;77.10;;;;;;5039665;28;20041;-85
2022/03/12 09:29:19;;;;;;;7.88;5.65;;;12.60;77.00;;;;;;5057801;28;20044;-83
2022/03/12 09:31:52;;;;;;;9.50;6.32;;;12.80;77.30;;;;;;5029036;28;20025;-85
2022/03/12 09:34:25;;;;;;;9.95;6.90;;;12.90;77.30;;;;;;5035036;28;20036;-84
2022/03/12 09:36:53;;;;;;;9.52;7.18;;;13.00;77.20;;;;;;5046526;28;20020;-79
2022/03/12 09:39:22;;;;;;;11.27;7.68;;;13.20;77.20;;;;;;5027748;28;20052;-79
2022/03/12 09:41:50;;;;;;;15.55;10.77;;;13.30;77.00;;;;;;5043861;28;20420;-79
2022/03/12 09:44:17;;;;;;;13.10;8.90;;;13.30;77.00;;;;;;5015445;28;20029;-78
2022/03/12 09:46:51;;;;;;;12.77;9.50;;;13.40;77.10;;;;;;5026407;28;20412;-80
2022/03/12 09:49:18;;;;;;;10.35;6.15;;;13.50;77.30;;;;;;5033970;28;20035;-82
2022/03/12 09:51:46;;;;;;;6.80;5.07;;;13.50;77.20;;;;;;5042743;28;20035;-80
2022/03/12 09:54:13;;;;;;;10.10;6.15;;;13.60;77.20;;;;;;5049067;28;20035;-81
2022/03/12 09:56:43;;;;;;;8.05;5.70;;;13.70;77.20;;;;;;5058749;28;20044;-79
2022/03/12 09:59:10;;;;;;;11.30;8.13;;;13.80;77.20;;;;;;5046407;28;20056;-80
2022/03/12 10:01:39;;;;;;;16.63;11.65;;;14.00;77.10;;;;;;5028133;28;20053;-82
2022/03/12 10:04:06;;;;;;;14.80;7.65;;;14.00;77.10;;;;;;5029228;28;20047;-80
2022/03/12 10:06:44;;;;;;;10.07;5.68;;;14.20;77.20;;;;;;5030967;28;20033;-80
2022/03/12 10:09:11;;;;;;;7.25;4.90;;;14.30;77.20;;;;;;5035764;28;20039;-80
2022/03/12 10:11:38;;;;;;;7.55;5.60;;;14.40;77.20;;;;;;5081553;28;20024;-83
2022/03/12 10:14:08;;;;;;;6.78;4.72;;;14.50;77.00;;;;;;5066623;28;20032;-82
2022/03/12 10:16:36;;;;;;;5.60;4.03;;;14.50;77.00;;;;;;5065259;28;20047;-81
2022/03/12 10:19:03;;;;;;;8.93;4.88;;;14.70;77.00;;;;;;5066500;28;20036;-81
2022/03/12 10:21:35;;;;;;;8.45;4.82;;;14.80;76.70;;;;;;5044294;28;20028;-86
2022/03/12 10:24:04;;;;;;;6.82;5.05;;;14.90;76.60;;;;;;5053218;28;20392;-82
2022/03/12 10:26:34;;;;;;;6.32;4.32;;;14.90;76.30;;;;;;5085690;28;20035;-85
2022/03/12 10:29:00;;;;;;;8.18;4.45;;;14.90;76.50;;;;;;5070354;28;20043;-80
2022/03/12 10:31:28;;;;;;;6.00;3.67;;;14.90;76.80;;;;;;5076734;28;20063;-81
2022/03/12 10:34:14;;;;;;;7.05;4.40;;;14.90;77.00;;;;;;5063589;28;20043;-86
2022/03/12 10:36:41;;;;;;;9.43;6.13;;;15.00;77.10;;;;;;5081569;28;20039;-80
2022/03/12 10:39:10;;;;;;;6.28;4.53;;;15.10;76.70;;;;;;5049390;28;20047;-81
2022/03/12 10:41:37;;;;;;;7.72;4.60;;;15.10;76.70;;;;;;5076233;28;20036;-81
2022/03/12 10:44:05;;;;;;;8.23;4.97;;;15.10;76.60;;;;;;5077190;28;20028;-81
2022/03/12 10:46:34;;;;;;;5.75;4.03;;;15.10;76.50;;;;;;5074044;28;20049;-81
2022/03/12 10:49:04;;;;;;;7.32;3.90;;;15.10;77.00;;;;;;5062299;28;20036;-81
2022/03/12 10:51:32;;;;;;;6.13;2.95;;;15.20;76.30;;;;;;5060696;28;20488;-81
2022/03/12 10:54:03;;;;;;;5.72;3.20;;;15.30;76.30;;;;;;5068014;28;20090;-80
2022/03/12 10:56:51;;;;;;;6.57;2.42;;;15.40;76.00;;;;;;5077764;28;20036;-81
2022/03/12 10:59:23;;;;;;;5.65;3.17;;;15.40;75.20;;;;;;5054778;28;20020;-84
2022/03/12 11:02:01;;;;;;;5.47;2.75;;;15.40;74.60;;;;;;5073785;28;20379;-84
2022/03/12 11:04:30;;;;;;;5.22;2.50;;;15.40;74.80;;;;;;5058607;28;20035;-85
2022/03/12 11:06:59;;;;;;;5.85;2.55;;;15.50;74.70;;;;;;5071642;28;20039;-84
2022/03/12 11:09:33;;;;;;;4.85;2.17;;;15.60;74.60;;;;;;5072738;28;20502;-83
2022/03/12 11:12:04;;;;;;;4.53;2.33;;;15.60;73.90;;;;;;5074167;28;20031;-84
2022/03/12 11:14:31;;;;;;;6.25;2.67;;;15.60;73.50;;;;;;5058045;28;20040;-84
2022/03/12 11:16:59;;;;;;;6.55;2.22;;;15.60;73.10;;;;;;5070421;28;20043;-83
2022/03/12 11:19:45;;;;;;;5.20;2.03;;;15.50;72.90;;;;;;5070391;28;20043;-84
2022/03/12 11:22:14;;;;;;;6.70;2.40;;;15.50;72.50;;;;;;5076372;28;20028;-84
2022/03/12 11:24:52;;;;;;;6.43;2.42;;;15.60;72.30;;;;;;5091756;28;20454;-84
2022/03/12 11:27:35;;;;;;;5.63;2.50;;;15.60;72.20;;;;;;5074734;28;20036;-85
2022/03/12 11:30:08;;;;;;;4.50;2.20;;;15.70;72.10;;;;;;5057663;28;20424;-83
2022/03/12 11:32:40;;;;;;;6.25;2.25;;;15.80;71.80;;;;;;5058189;28;20038;-83
2022/03/12 11:35:15;;;;;;;3.63;1.73;;;15.90;71.70;;;;;;5096763;28;20028;-81
2022/03/12 11:37:42;;;;;;;8.50;2.35;;;16.00;71.70;;;;;;5111249;28;20046;-82
2022/03/12 11:40:19;;;;;;;5.70;2.33;;;16.10;71.50;;;;;;5070347;28;20042;-79
2022/03/12 11:42:48;;;;;;;4.68;2.28;;;16.20;71.30;;;;;;5078867;28;20028;-80
2022/03/12 11:45:19;;;;;;;6.05;2.35;;;16.40;70.90;;;;;;5099514;28;20027;-80
2022/03/12 11:47:46;;;;;;;5.83;2.50;;;16.70;70.50;;;;;;5082664;28;20055;-82
2022/03/12 11:50:16;;;;;;;4.25;2.22;;;16.90;70.20;;;;;;5104300;28;20467;-81
2022/03/12 11:52:44;;;;;;;4.22;2.70;;;17.20;69.70;;;;;;5088427;28;20039;-80
2022/03/12 11:55:21;;;;;;;9.60;3.40;;;17.30;69.10;;;;;;5069911;28;20025;-81
2022/03/12 11:57:49;;;;;;;18.30;10.75;;;17.50;68.60;;;;;;5085833;28;20034;-81
2022/03/12 12:00:22;;;;;;;7.82;3.92;;;17.40;68.10;;;;;;5066090;28;20028;-81
2022/03/12 12:02:53;;;;;;;7.68;4.15;;;17.30;68.70;;;;;;5047784;28;20044;-88
2022/03/12 12:05:25;;;;;;;6.40;3.58;;;17.20;68.90;;;;;;5056475;28;20055;-85
2022/03/12 12:08:00;;;;;;;5.55;3.00;;;17.50;69.20;;;;;;5090006;28;20020;-87
2022/03/12 12:10:37;;;;;;;6.55;3.80;;;18.00;68.50;;;;;;5071859;28;20044;-87
2022/03/12 12:13:04;;;;;;;6.85;3.78;;;18.00;66.90;;;;;;5088765;28;20040;-84
2022/03/12 12:15:34;;;;;;;7.65;3.42;;;18.00;67.10;;;;;;5056368;28;20035;-84
2022/03/12 12:18:02;;;;;;;6.72;4.43;;;17.90;67.40;;;;;;5061574;27;20040;-86
2022/03/12 12:20:30;;;;;;;5.93;2.78;;;17.90;67.80;;;;;;5060066;27;20032;-86
2022/03/12 12:23:04;;;;;;;7.18;3.75;;;18.30;67.60;;;;;;5079566;27;20039;-85
2022/03/12 12:25:47;;;;;;;7.70;3.83;;;18.70;66.20;;;;;;5081198;27;20043;-86
2022/03/12 12:28:22;;;;;;;6.85;4.07;;;19.10;65.20;;;;;;5090988;28;20031;-84
2022/03/12 12:30:55;;;;;;;6.32;3.17;;;19.00;64.70;;;;;;5073570;27;20035;-85
2022/03/12 12:33:29;;;;;;;5.15;3.17;;;18.80;64.90;;;;;;5095530;27;20038;-87
2022/03/12 12:36:17;;;;;;;6.85;3.28;;;18.50;65.00;;;;;;5062671;27;20070;-89
2022/03/12 12:39:19;;;;;;;6.03;3.58;;;18.10;66.00;;;;;;5059437;27;20028;-89
2022/03/12 12:41:53;;;;;;;4.90;3.50;;;18.10;66.50;;;;;;5093312;27;20024;-88
2022/03/12 12:44:39;;;;;;;6.28;3.58;;;18.10;66.20;;;;;;5060296;28;20035;-88
2022/03/12 12:47:08;;;;;;;7.32;3.88;;;18.00;66.70;;;;;;5065569;27;20019;-89
2022/03/12 12:49:40;;;;;;;5.05;3.00;;;18.00;67.10;;;;;;5073955;27;20039;-87
2022/03/12 12:52:10;;;;;;;;;;;18.30;66.80;;;;;;5058146;28;20048;-88
2022/03/12 12:55:00;;;;;;;6.47;3.70;;;18.50;66.20;;;;;;5058251;28;19919;-87
2022/03/12 12:57:53;;;;;;;5.65;2.33;;;18.40;65.50;;;;;;5053573;27;20047;-82
2022/03/12 13:00:30;;;;;;;6.65;2.58;;;18.30;65.70;;;;;;5064594;28;20032;-86
2022/03/12 13:02:59;;;;;;;5.78;2.63;;;18.40;65.70;;;;;;5100562;27;20415;-85
2022/03/12 13:05:48;;;;;;;7.45;3.95;;;18.60;65.10;;;;;;5042142;27;20062;-86
2022/03/12 13:08:19;;;;;;;7.13;3.00;;;19.00;64.40;;;;;;5094127;27;20107;-87
2022/03/12 13:10:52;;;;;;;4.93;2.80;;;19.20;63.80;;;;;;5073496;27;20035;-88
2022/03/12 13:13:31;;;;;;;4.90;2.50;;;19.20;63.70;;;;;;5081205;27;20047;-88
2022/03/12 13:15:57;;;;;;;7.65;2.53;;;19.30;63.50;;;;;;5082323;28;20031;-87
2022/03/12 13:18:27;;;;;;;5.45;2.78;;;19.50;62.70;;;;;;5080291;27;20025;-88
2022/03/12 13:20:55;;;;;;;5.78;2.90;;;19.70;61.90;;;;;;5061871;28;20490;-87
2022/03/12 13:23:45;;;;;;;5.38;2.88;;;19.90;61.10;;;;;;5054535;27;20027;-86
2022/03/12 13:26:17;;;;;;;7.03;2.78;;;19.80;60.90;;;;;;5047254;28;20722;-86
2022/03/12 13:28:48;;;;;;;5.03;2.88;;;19.50;61.00;;;;;;5051077;27;20028;-85
2022/03/12 13:31:27;;;;;;;4.57;2.88;;;19.30;61.80;;;;;;5046020;28;20039;-87
2022/03/12 13:34:03;;;;;;;4.65;2.45;;;19.10;61.80;;;;;;5064713;27;20028;-86
2022/03/12 13:36:55;;;;;;;5.50;3.00;;;18.80;61.90;;;;;;5080843;27;20036;-86
2022/03/12 13:39:23;;;;;;;7.65;2.78;;;18.40;62.60;;;;;;5054786;27;20036;-86
2022/03/12 13:41:50;;;;;;;6.10;2.45;;;18.00;62.70;;;;;;5101792;27;20384;-86
2022/03/12 13:44:19;;;;;;;6.38;2.78;;;17.70;63.30;;;;;;5058991;28;20030;-86
2022/03/12 13:46:48;;;;;;;5.63;2.28;;;17.60;64.10;;;;;;5065994;28;20475;-86
2022/03/12 13:49:20;;;;;;;4.68;2.30;;;17.50;64.30;;;;;;5063810;28;21247;-86
2022/03/12 13:51:50;;;;;;;4.70;2.37;;;17.50;64.30;;;;;;5080812;27;20383;-86
2022/03/12 13:54:20;;;;;;;8.90;2.40;;;17.40;64.30;;;;;;5061920;27;20048;-86
2022/03/12 13:56:48;;;;;;;6.82;2.58;;;17.30;64.40;;;;;;5097855;27;20573;-86
2022/03/12 13:59:24;;;;;;;6.57;2.53;;;17.20;64.80;;;;;;5080640;28;20020;-86
2022/03/12 14:01:51;;;;;;;7.35;2.42;;;17.20;65.20;;;;;;5079466;28;20016;-87
2022/03/12 14:04:28;;;;;;;7.10;2.58;;;17.30;65.30;;;;;;5101044;27;20703;-87
2022/03/12 14:06:55;;;;;;;5.57;2.40;;;17.30;64.80;;;;;;5102801;27;20023;-85
2022/03/12 14:09:24;;;;;;;6.40;2.47;;;17.20;65.00;;;;;;5079859;28;20727;-86
2022/03/12 14:11:56;;;;;;;4.80;2.00;;;17.10;65.20;;;;;;5063926;28;20043;-86
2022/03/12 14:14:25;;;;;;;6.97;1.70;;;17.10;65.20;;;;;;5065169;27;20047;-86
2022/03/12 14:17:05;;;;;;;6.95;2.00;;;17.10;65.30;;;;;;5069485;28;20032;-86